• Join FlightAware (Why Join?)
  • Login
  • US Flag 
12:08AM EDT


 

Airport Tracker/Info


-or-


 

Live Flight TrackerFlight Track Log ✈ N682RW ✈ 17-May-2013 ✈ KDTW - KMDW

Flight Track Log - Related Links

Times and Time Zones

All times are in EDT time to prevent confusion due to time zone crossing. See the N682RW flight status page for this flight to view local times or setup timezone preferences in your user account.

Time Position Orientation Groundspeed Altitude Reporting Facility
EDT Latitude Longitude Course Direction KTS MPH feet Rate Location/Type
03:05PM 42.2292 -83.3369 North 171 197 1,300  Level Cleveland Center
03:06PM 42.2814 -83.3308 North 234 269 3,600 2,700 Climbing Cleveland Center
03:07PM 42.3500 -83.3422 353° North 275 316 6,600 3,120 Climbing Cleveland Center
03:08PM 42.3747 -83.4361 290° West 269 310 10,000 2,160 Climbing Cleveland Center
03:09PM 42.3753 -83.4981 271° West 282 325 10,000 120 Level Cleveland Center
03:10PM 42.3764 -83.6133 271° West 323 372 10,200 1,320 Climbing Cleveland Center
03:11PM 42.3503 -83.7383 254° West 334 384 12,700 2,940 Climbing Cleveland Center
03:12PM 42.3239 -83.8636 254° West 344 396 16,100 2,820 Climbing Cleveland Center
03:13PM 42.2703 -83.9786 238° Southwest 351 404 18,400 1,920 Climbing Cleveland Center
03:14PM 42.2081 -84.1128 238° Southwest 378 435 20,000 780 Climbing Cleveland Center
03:15PM 42.1519 -84.2356 238° Southwest 383 441 20,000  Level Cleveland Center
03:16PM 42.1069 -84.3422 240° Southwest 378 435 20,000  Level Cleveland Center
03:17PM 42.0528 -84.4622 239° Southwest 373 429 20,000  Level Cleveland Center
03:18PM 41.9964 -84.5844 238° Southwest 373 429 20,000  Level Cleveland Center
03:20PM 41.8714 -84.8528 238° Southwest 383 441 20,000  Level Chicago Center
03:21PM 41.8150 -84.9739 238° Southwest 383 441 20,000  Level Chicago Center
03:22PM 41.7483 -85.1192 238° Southwest 383 441 20,000  Level Chicago Center
03:23PM 41.6911 -85.2419 238° Southwest 387 445 20,000  Level Chicago Center
03:24PM 41.6300 -85.3725 238° Southwest 390 449 20,000 -60 Level Chicago Center
03:25PM 41.5675 -85.5047 238° Southwest 400 460 19,900 -480 Descending Chicago Center
03:26PM 41.5619 -85.6483 267° West 393 452 19,000 -1,080 Descending Chicago Center
03:27PM 41.5628 -85.7947 270° West 393 452 17,700 -1,740 Descending Chicago Center
03:28PM 41.5531 -85.9333 265° West 379 436 15,500 -2,340 Descending Chicago Center
03:29PM 41.5442 -86.0711 265° West 374 430 12,900 -2,280 Descending Chicago Center
03:30PM 41.5339 -86.2306 265° West 361 415 10,800 -1,440 Descending Chicago Center
03:31PM 41.5247 -86.3608 265° West 354 407 10,000 -420 Descending Chicago Center
03:32PM 41.5217 -86.4917 268° West 354 407 10,000  Level Chicago Center
03:33PM 41.5217 -86.6242 270° West 357 411 10,000  Level Chicago Center
03:34PM 41.5206 -86.7700 269° West 354 407 10,000 -600 Level Chicago Center
03:35PM 41.5200 -86.8806 270° West 303 349 8,800 -1,320 Descending Chicago Center
03:36PM 41.5172 -86.9892 268° West 295 339 7,300 -1,260 Descending Chicago Center
03:38PM 41.5172 -87.0928 270° West 284 327 6,200 -660 Descending Chicago Center
03:39PM 41.5153 -87.2147 269° West 277 319 6,000 -420 Descending Chicago Center
03:40PM 41.5167 -87.3333 271° West 280 322 5,400 -480 Descending Chicago TRACON
03:41PM 41.5131 -87.4197 267° West 277 319 5,000 -240 Descending Chicago Center
03:42PM 41.5111 -87.5186 269° West 273 314 5,000 -360 Level Chicago Center
03:43PM 41.5219 -87.6000 280° West 242 278 4,300 -540 Descending Chicago Center
03:44PM 41.5353 -87.6944 281° West 227 261 4,000 -180 Descending Chicago Center
03:45PM 41.5639 -87.7514 304° West 204 235 4,000 -420 Level Chicago Center
03:46PM 41.5897 -87.8142 299° West 198 228 3,200 -780 Descending Chicago Center
03:47PM 41.6136 -87.8744 298° West 192 221 2,500 -360 Descending Chicago Center
03:48PM 41.6411 -87.9278 305° West 193 222 2,500  Level Chicago Center
03:49PM 41.6803 -87.8819 41° Northeast 174 200 2,500  Level Chicago Center
03:49PM 41.7000 -87.8500 50° Northeast 169 194 2,500 -420 Level Chicago TRACON
03:50PM 41.7333 -87.8167 37° Northeast 146 168 1,900 -660 Descending Chicago TRACON
03:51PM 41.7667 -87.7833 37° Northeast 138 159 1,200 -720 Descending Chicago TRACON
03:54PM 41.7833 -87.7500 25° Northeast  Level FlightAware Approximate